Time;durP1;ratioP1;P1;durP2;ratioP2;P2;SDS_P1;SDS_P2;PMS_P1;PMS_P2;Temp;Humidity;BMP_temperature;BMP_pressure;BME280_temperature;BME280_humidity;BME280_pressure;Samples;Min_cycle;Max_cycle;Signal;HPM_P1;HPM_P2
2021/07/12 00:00:25;;;;;;;0.93;0.55;;;;;;;-142.37;100.00;59669.53;4992915;28;20042;-59
2021/07/12 00:02:51;;;;;;;2.45;0.50;;;;;;;-142.37;100.00;59669.53;4993261;28;20061;-59
2021/07/12 00:05:18;;;;;;;1.33;0.93;;;;;;;-142.37;100.00;59669.53;4993240;28;20500;-60
2021/07/12 00:07:44;;;;;;;1.25;0.70;;;;;;;-142.37;100.00;59669.53;4993098;28;20026;-60
2021/07/12 00:10:11;;;;;;;1.13;0.40;;;;;;;-142.37;100.00;59669.53;4996094;28;20034;-59
2021/07/12 00:12:37;;;;;;;0.60;0.50;;;;;;;-142.37;100.00;59669.53;4996625;28;20462;-60
2021/07/12 00:15:08;;;;;;;1.02;0.73;;;;;;;-142.37;100.00;59669.53;4996609;28;20477;-59
2021/07/12 00:17:34;;;;;;;1.77;0.65;;;;;;;-142.37;100.00;59669.53;4996262;28;20034;-60
2021/07/12 00:19:59;;;;;;;0.85;0.50;;;;;;;-142.37;100.00;59669.53;4996575;28;20030;-60
2021/07/12 00:22:25;;;;;;;0.40;0.40;;;;;;;-142.37;100.00;59669.53;4996669;28;20034;-60
2021/07/12 00:24:50;;;;;;;1.23;0.80;;;;;;;-142.37;100.00;59669.53;4996567;28;20026;-59
2021/07/12 00:27:16;;;;;;;0.73;0.40;;;;;;;-142.37;100.00;59669.53;4996306;28;20031;-59
2021/07/12 00:29:41;;;;;;;0.90;0.50;;;;;;;-142.37;100.00;59669.53;4995655;28;20458;-59
2021/07/12 00:32:07;;;;;;;1.58;0.50;;;;;;;-142.37;100.00;59669.53;5000069;28;20041;-59
2021/07/12 00:34:32;;;;;;;2.05;0.70;;;;;;;-142.37;100.00;59669.53;5015945;28;20053;-59
2021/07/12 00:36:58;;;;;;;0.77;0.60;;;;;;;-142.37;100.00;59669.53;5015862;28;20502;-60
2021/07/12 00:39:23;;;;;;;2.05;0.63;;;;;;;-142.37;100.00;59669.53;5015915;28;20025;-59
2021/07/12 00:41:49;;;;;;;1.75;0.55;;;;;;;-142.37;100.00;59669.53;5015805;28;20029;-59
2021/07/12 00:44:15;;;;;;;0.77;0.57;;;;;;;-142.37;100.00;59669.53;5015760;28;20045;-59
2021/07/12 00:46:40;;;;;;;1.45;0.63;;;;;;;-142.37;100.00;59669.53;5015781;28;20465;-59
2021/07/12 00:49:06;;;;;;;1.40;0.73;;;;;;;-142.37;100.00;59669.53;5011959;28;20022;-59
2021/07/12 00:51:31;;;;;;;1.50;0.60;;;;;;;-142.37;100.00;59669.53;5014232;28;20107;-60
2021/07/12 00:53:57;;;;;;;1.05;0.45;;;;;;;-142.37;100.00;59669.53;5015404;28;20025;-59
2021/07/12 00:56:23;;;;;;;2.38;0.90;;;;;;;-142.37;100.00;59669.53;5015361;28;20038;-60
2021/07/12 00:58:48;;;;;;;1.20;0.68;;;;;;;-142.37;100.00;59669.53;5015410;28;20042;-59
2021/07/12 01:01:14;;;;;;;1.38;0.50;;;;;;;-142.37;100.00;59669.53;5015478;28;20407;-59
2021/07/12 01:03:40;;;;;;;1.65;0.80;;;;;;;-142.37;100.00;59669.53;5015173;28;20042;-60
2021/07/12 01:06:05;;;;;;;0.52;0.40;;;;;;;-142.37;100.00;59669.53;5015204;28;20041;-59
2021/07/12 01:08:31;;;;;;;1.20;0.57;;;;;;;-142.37;100.00;59669.53;5015284;28;20072;-59
2021/07/12 01:11:02;;;;;;;0.40;0.35;;;;;;;-142.37;100.00;59669.53;5015286;28;20109;-59
2021/07/12 01:14:12;;;;;;;0.98;0.57;;;;;;;-142.37;100.00;59669.53;5008607;28;20469;-59
2021/07/12 01:16:54;;;;;;;1.50;0.40;;;;;;;-142.37;100.00;59669.53;4903966;29;20052;-59
2021/07/12 01:19:38;;;;;;;1.30;0.60;;;;;;;-142.37;100.00;59669.53;4897603;29;20024;-60
2021/07/12 01:22:39;;;;;;;0.60;0.40;;;;;;;-142.37;100.00;59669.53;4897286;29;20047;-60
2021/07/12 01:25:10;;;;;;;0.60;0.60;;;;;;;-142.37;100.00;59669.53;4897399;29;20488;-59
2021/07/12 01:27:38;;;;;;;1.23;0.50;;;;;;;-142.37;100.00;59669.53;4897370;29;20040;-59
2021/07/12 01:30:09;;;;;;;0.80;0.47;;;;;;;-142.37;100.00;59669.53;4897176;29;20028;-59
2021/07/12 01:32:34;;;;;;;1.77;0.70;;;;;;;-142.37;100.00;59669.53;4897280;29;20468;-59
2021/07/12 01:35:04;;;;;;;0.77;0.50;;;;;;;-142.37;100.00;59669.53;4897124;29;20060;-60
2021/07/12 01:38:08;;;;;;;0.38;0.38;;;;;;;-142.37;100.00;59669.53;4897396;29;20037;-60
2021/07/12 01:40:58;;;;;;;0.82;0.52;;;;;;;-142.37;100.00;59669.53;4910762;29;20044;-59
2021/07/12 01:43:56;;;;;;;0.75;0.70;;;;;;;-142.37;100.00;59669.53;4914460;29;20036;-59
2021/07/12 01:46:48;;;;;;;1.42;0.75;;;;;;;-142.37;100.00;59669.53;4915870;29;20176;-59
2021/07/12 01:49:30;;;;;;;0.57;0.57;;;;;;;-142.37;100.00;59669.53;4915851;29;20111;-60
2021/07/12 01:52:08;;;;;;;1.85;0.50;;;;;;;-142.37;100.00;59669.53;4915726;29;20035;-60
2021/07/12 01:54:58;;;;;;;2.17;0.70;;;;;;;-142.37;100.00;59669.53;4994735;28;20026;-60
2021/07/12 01:57:29;;;;;;;1.80;0.60;;;;;;;-142.37;100.00;59669.53;5012194;28;20037;-59
2021/07/12 02:00:03;;;;;;;0.77;0.40;;;;;;;-142.37;100.00;59669.53;5014108;28;20042;-59
2021/07/12 02:02:30;;;;;;;;;;;;;;;-142.37;100.00;59669.53;5014670;28;20092;-59
2021/07/12 02:04:58;;;;;;;2.13;0.90;;;;;;;-142.37;100.00;59669.53;5014219;28;19909;-60
2021/07/12 02:07:27;;;;;;;0.43;0.40;;;;;;;-142.37;100.00;59669.53;5014207;28;20387;-60
2021/07/12 02:09:54;;;;;;;1.00;0.50;;;;;;;-142.37;100.00;59669.53;5014017;28;20034;-60
2021/07/12 02:12:20;;;;;;;1.58;0.50;;;;;;;-142.37;100.00;59669.53;5014021;28;20117;-59
2021/07/12 02:14:47;;;;;;;1.15;0.68;;;;;;;-142.37;100.00;59669.53;5014196;28;20064;-59
2021/07/12 02:17:15;;;;;;;2.17;0.82;;;;;;;-142.37;100.00;59669.53;5010216;28;20350;-59
2021/07/12 02:19:42;;;;;;;1.10;0.50;;;;;;;-142.37;100.00;59669.53;4994529;28;20023;-59
2021/07/12 02:22:07;;;;;;;1.20;0.52;;;;;;;-142.37;100.00;59669.53;4994138;28;20405;-59
2021/07/12 02:24:34;;;;;;;0.50;0.43;;;;;;;-142.37;100.00;59669.53;4994319;28;20026;-59
2021/07/12 02:27:00;;;;;;;5.05;0.93;;;;;;;-142.37;100.00;59669.53;4994299;28;20472;-60
2021/07/12 02:29:26;;;;;;;1.92;0.60;;;;;;;-142.37;100.00;59669.53;5011777;28;20104;-59
2021/07/12 02:31:53;;;;;;;0.85;0.45;;;;;;;-142.37;100.00;59669.53;5012250;28;20017;-59
2021/07/12 02:34:19;;;;;;;1.60;0.50;;;;;;;-142.37;100.00;59669.53;5013590;28;20030;-60
2021/07/12 02:36:47;;;;;;;1.05;0.55;;;;;;;-142.37;100.00;59669.53;5013845;28;20072;-59
2021/07/12 02:39:14;;;;;;;0.65;0.60;;;;;;;-142.37;100.00;59669.53;5006933;28;20029;-59
2021/07/12 02:41:40;;;;;;;1.73;0.45;;;;;;;-142.37;100.00;59669.53;4993675;28;20030;-60
2021/07/12 02:44:10;;;;;;;0.68;0.40;;;;;;;-142.37;100.00;59669.53;4995782;28;20028;-60
2021/07/12 02:46:38;;;;;;;1.50;0.45;;;;;;;-142.37;100.00;59669.53;4993435;28;20038;-58
2021/07/12 02:49:04;;;;;;;2.78;0.60;;;;;;;-142.37;100.00;59669.53;4993744;28;20033;-58
2021/07/12 02:51:57;;;;;;;0.85;0.40;;;;;;;-142.37;100.00;59669.53;4993881;28;20030;-59
2021/07/12 02:54:28;;;;;;;1.20;0.68;;;;;;;-142.37;100.00;59669.53;4992935;28;20077;-58
2021/07/12 02:56:54;;;;;;;0.77;0.40;;;;;;;-142.37;100.00;59669.53;4993860;28;20022;-58
2021/07/12 02:59:20;;;;;;;1.10;0.40;;;;;;;-142.37;100.00;59669.53;4993602;28;20042;-58
2021/07/12 03:01:45;;;;;;;2.45;0.65;;;;;;;-142.37;100.00;59669.53;4993704;28;20504;-58
2021/07/12 03:04:11;;;;;;;0.70;0.38;;;;;;;-142.37;100.00;59669.53;4993643;28;20030;-58
2021/07/12 03:06:36;;;;;;;0.70;0.40;;;;;;;-142.37;100.00;59669.53;4993704;28;20109;-58
2021/07/12 03:09:11;;;;;;;0.55;0.50;;;;;;;-142.37;100.00;59669.53;4993594;28;20100;-58
2021/07/12 03:11:39;;;;;;;0.68;0.50;;;;;;;-142.37;100.00;59669.53;4993582;28;20029;-58
2021/07/12 03:14:19;;;;;;;1.27;0.30;;;;;;;-142.37;100.00;59669.53;4993415;28;20026;-58
2021/07/12 03:16:48;;;;;;;0.90;0.60;;;;;;;-142.37;100.00;59669.53;4993569;28;20444;-58
2021/07/12 03:19:19;;;;;;;0.75;0.50;;;;;;;-142.37;100.00;59669.53;5013020;28;20025;-58
2021/07/12 03:21:46;;;;;;;1.13;0.52;;;;;;;-142.37;100.00;59669.53;5013243;28;20026;-58
2021/07/12 03:24:12;;;;;;;1.42;0.52;;;;;;;-142.37;100.00;59669.53;5000382;28;20050;-58
2021/07/12 03:26:45;;;;;;;2.10;0.60;;;;;;;-142.37;100.00;59669.53;4999359;28;20104;-58
2021/07/12 03:29:16;;;;;;;2.05;0.60;;;;;;;-142.37;100.00;59669.53;5013124;28;20045;-58
2021/07/12 03:31:42;;;;;;;0.73;0.30;;;;;;;-142.37;100.00;59669.53;5013103;28;20029;-58
2021/07/12 03:34:11;;;;;;;0.95;0.40;;;;;;;-142.37;100.00;59669.53;5012970;28;20034;-58
2021/07/12 03:36:38;;;;;;;1.65;0.70;;;;;;;-142.37;100.00;59669.53;5013141;28;20076;-58
2021/07/12 03:39:05;;;;;;;1.20;0.40;;;;;;;-142.37;100.00;59669.53;5012931;28;20026;-60
2021/07/12 03:41:30;;;;;;;1.65;0.47;;;;;;;-142.37;100.00;59669.53;5013026;28;20030;-59
2021/07/12 03:43:57;;;;;;;2.67;0.50;;;;;;;-142.37;100.00;59669.53;5013230;28;20080;-59
2021/07/12 03:46:22;;;;;;;0.40;0.25;;;;;;;-142.37;100.00;59669.53;5006736;28;20041;-59
2021/07/12 03:48:47;;;;;;;1.58;0.60;;;;;;;-142.37;100.00;59669.53;4997054;28;20026;-58
2021/07/12 03:51:19;;;;;;;1.75;0.38;;;;;;;-142.37;100.00;59669.53;4997171;28;20509;-59
2021/07/12 03:53:44;;;;;;;1.48;0.40;;;;;;;-142.37;100.00;59669.53;4996957;28;20034;-59
2021/07/12 03:56:10;;;;;;;1.00;0.40;;;;;;;-142.37;100.00;59669.53;4997269;28;20400;-59
2021/07/12 03:58:35;;;;;;;2.00;0.30;;;;;;;-142.37;100.00;59669.53;4996792;28;20045;-59
2021/07/12 04:01:00;;;;;;;0.75;0.52;;;;;;;-142.37;100.00;59669.53;4996797;28;20054;-60
2021/07/12 04:03:26;;;;;;;1.48;0.35;;;;;;;-142.37;100.00;59669.53;4996885;28;20076;-60
2021/07/12 04:05:51;;;;;;;0.98;0.38;;;;;;;-142.37;100.00;59669.53;4996920;28;20026;-59
2021/07/12 04:08:16;;;;;;;2.30;0.40;;;;;;;-142.37;100.00;59669.53;4996933;28;20500;-59
2021/07/12 04:10:42;;;;;;;0.47;0.40;;;;;;;-142.37;100.00;59669.53;4996622;28;20038;-59
2021/07/12 04:13:08;;;;;;;1.58;0.85;;;;;;;-142.37;100.00;59669.53;4996561;28;20487;-59
2021/07/12 04:15:34;;;;;;;0.50;0.35;;;;;;;-142.37;100.00;59669.53;4996641;28;20034;-59
2021/07/12 04:17:59;;;;;;;0.25;0.25;;;;;;;-142.37;100.00;59669.53;5001232;28;20373;-59
2021/07/12 04:20:25;;;;;;;0.98;0.52;;;;;;;-142.37;100.00;59669.53;5016286;28;20021;-59
2021/07/12 04:22:50;;;;;;;0.98;0.32;;;;;;;-142.37;100.00;59669.53;5015844;28;20105;-59
2021/07/12 04:25:15;;;;;;;1.00;0.30;;;;;;;-142.37;100.00;59669.53;5016064;28;20073;-59
2021/07/12 04:27:41;;;;;;;1.55;0.90;;;;;;;-142.37;100.00;59669.53;5016002;28;20105;-60
2021/07/12 04:30:09;;;;;;;0.20;0.20;;;;;;;-142.37;100.00;59669.53;5015611;28;20026;-59
2021/07/12 04:32:35;;;;;;;0.55;0.20;;;;;;;-142.37;100.00;59669.53;5015936;28;20105;-60
2021/07/12 04:35:01;;;;;;;1.20;0.30;;;;;;;-142.37;100.00;59669.53;5015854;28;20045;-59
2021/07/12 04:37:26;;;;;;;0.30;0.30;;;;;;;-142.37;100.00;59669.53;5015740;28;20030;-59
2021/07/12 04:39:52;;;;;;;0.60;0.40;;;;;;;-142.37;100.00;59669.53;5015713;28;20018;-59
2021/07/12 04:42:17;;;;;;;1.13;0.40;;;;;;;-142.37;100.00;59669.53;5015567;28;20049;-59
2021/07/12 04:44:42;;;;;;;1.90;0.63;;;;;;;-142.37;100.00;59669.53;5015749;28;20026;-59
2021/07/12 04:47:08;;;;;;;1.88;0.22;;;;;;;-142.37;100.00;59669.53;5015619;28;20457;-59
2021/07/12 04:49:34;;;;;;;1.73;0.30;;;;;;;-142.37;100.00;59669.53;5014301;28;20030;-59
2021/07/12 04:52:00;;;;;;;0.32;0.32;;;;;;;-142.37;100.00;59669.53;5014547;28;20036;-59
2021/07/12 04:54:25;;;;;;;1.23;0.30;;;;;;;-142.37;100.00;59669.53;5015054;28;20037;-60
2021/07/12 04:56:50;;;;;;;1.00;0.25;;;;;;;-142.37;100.00;59669.53;5015270;28;20449;-60
2021/07/12 04:59:17;;;;;;;0.60;0.30;;;;;;;-142.37;100.00;59669.53;5014962;28;20041;-59
2021/07/12 05:01:43;;;;;;;1.40;0.30;;;;;;;-142.37;100.00;59669.53;5015419;28;20034;-60
2021/07/12 05:04:10;;;;;;;0.68;0.20;;;;;;;-142.37;100.00;59669.53;5015479;28;20030;-60
2021/07/12 05:06:35;;;;;;;0.70;0.30;;;;;;;-142.37;100.00;59669.53;5015155;28;20049;-59
2021/07/12 05:09:01;;;;;;;1.15;0.30;;;;;;;-142.37;100.00;59669.53;5014233;28;20050;-60
2021/07/12 05:11:29;;;;;;;0.40;0.20;;;;;;;-142.37;100.00;59669.53;5015082;28;20025;-60
2021/07/12 05:13:55;;;;;;;3.75;0.63;;;;;;;-142.37;100.00;59669.53;5014346;28;20036;-59
2021/07/12 05:16:20;;;;;;;0.38;0.32;;;;;;;-142.37;100.00;59669.53;5015039;28;20030;-59
2021/07/12 05:18:47;;;;;;;1.10;0.30;;;;;;;-142.37;100.00;59669.53;4998429;28;20473;-60
2021/07/12 05:21:12;;;;;;;1.08;0.30;;;;;;;-142.37;100.00;59669.53;4995610;28;20244;-59
2021/07/12 05:23:38;;;;;;;0.93;0.52;;;;;;;-142.37;100.00;59669.53;4995539;28;20505;-59
2021/07/12 05:26:04;;;;;;;1.48;0.35;;;;;;;-142.37;100.00;59669.53;4994842;28;20073;-60
2021/07/12 05:28:30;;;;;;;0.50;0.40;;;;;;;-142.37;100.00;59669.53;4994374;28;20026;-60
2021/07/12 05:30:55;;;;;;;1.38;0.30;;;;;;;-142.37;100.00;59669.53;4995256;28;20026;-60
2021/07/12 05:33:20;;;;;;;0.98;0.50;;;;;;;-142.37;100.00;59669.53;4994967;28;20029;-60
2021/07/12 05:35:46;;;;;;;0.90;0.20;;;;;;;-142.37;100.00;59669.53;4995219;28;20034;-59
2021/07/12 05:38:11;;;;;;;0.45;0.30;;;;;;;-142.37;100.00;59669.53;4994906;28;20469;-59
2021/07/12 05:40:37;;;;;;;0.45;0.30;;;;;;;-142.37;100.00;59669.53;4995187;28;20576;-60
2021/07/12 05:43:03;;;;;;;0.50;0.20;;;;;;;-142.37;100.00;59669.53;4994954;28;20105;-60
2021/07/12 05:45:29;;;;;;;0.25;0.20;;;;;;;-142.37;100.00;59669.53;4994994;28;20034;-61
2021/07/12 05:47:55;;;;;;;1.27;0.20;;;;;;;-142.37;100.00;59669.53;4994898;28;20037;-60
2021/07/12 05:50:21;;;;;;;1.85;0.28;;;;;;;-142.37;100.00;59669.53;4994642;28;20022;-61
2021/07/12 05:52:46;;;;;;;1.27;0.20;;;;;;;-142.37;100.00;59669.53;4994222;28;20029;-61
2021/07/12 05:55:12;;;;;;;0.57;0.20;;;;;;;-142.37;100.00;59669.53;4994788;28;20096;-61
2021/07/12 05:57:37;;;;;;;2.05;0.43;;;;;;;-142.37;100.00;59669.53;4994728;28;20034;-61
2021/07/12 06:00:06;;;;;;;1.27;0.25;;;;;;;-142.37;100.00;59669.53;4994327;28;20046;-61
2021/07/12 06:02:31;;;;;;;1.77;0.65;;;;;;;-142.37;100.00;59669.53;4994458;28;20034;-61
2021/07/12 06:04:57;;;;;;;0.28;0.20;;;;;;;-142.37;100.00;59669.53;4994649;28;20035;-61
2021/07/12 06:07:22;;;;;;;1.42;0.30;;;;;;;-142.37;100.00;59669.53;4993884;28;20034;-62
2021/07/12 06:09:47;;;;;;;0.40;0.20;;;;;;;-142.37;100.00;59669.53;4994562;28;20044;-61
2021/07/12 06:12:13;;;;;;;2.03;0.43;;;;;;;-142.37;100.00;59669.53;4994192;28;20465;-61
2021/07/12 06:14:38;;;;;;;0.55;0.17;;;;;;;-142.37;100.00;59669.53;4994392;28;20022;-60
2021/07/12 06:17:03;;;;;;;1.13;0.20;;;;;;;-142.37;100.00;59669.53;4996715;28;20026;-61
2021/07/12 06:19:29;;;;;;;2.00;0.50;;;;;;;-142.37;100.00;59669.53;5013962;28;20025;-61
2021/07/12 06:21:54;;;;;;;1.42;0.20;;;;;;;-142.37;100.00;59669.53;5014032;28;20025;-61
2021/07/12 06:24:20;;;;;;;0.73;0.20;;;;;;;-142.37;100.00;59669.53;5013807;28;20033;-61
2021/07/12 06:26:45;;;;;;;2.40;0.50;;;;;;;-142.37;100.00;59669.53;5013972;28;20084;-61
2021/07/12 06:29:10;;;;;;;0.88;0.28;;;;;;;-142.37;100.00;59669.53;5013915;28;20424;-61
2021/07/12 06:31:36;;;;;;;1.38;0.30;;;;;;;-142.37;100.00;59669.53;5013857;28;20353;-60
2021/07/12 06:34:02;;;;;;;0.93;0.50;;;;;;;-142.37;100.00;59669.53;5013810;28;20029;-61
2021/07/12 06:36:28;;;;;;;0.20;0.20;;;;;;;-142.37;100.00;59669.53;5013867;28;20037;-61
2021/07/12 06:38:54;;;;;;;1.95;0.47;;;;;;;-142.37;100.00;59669.53;5013600;28;20376;-61
2021/07/12 06:41:20;;;;;;;0.60;0.22;;;;;;;-142.37;100.00;59669.53;5011455;28;20025;-61
2021/07/12 06:43:45;;;;;;;0.68;0.43;;;;;;;-142.37;100.00;59669.53;5013563;28;20034;-61
2021/07/12 06:46:10;;;;;;;1.27;0.10;;;;;;;-142.37;100.00;59669.53;5012956;28;20562;-62
2021/07/12 06:48:36;;;;;;;1.27;0.75;;;;;;;-142.37;100.00;59669.53;5012780;28;20131;-61
2021/07/12 06:51:01;;;;;;;1.42;0.20;;;;;;;-142.37;100.00;59669.53;5013196;28;20045;-61
2021/07/12 06:53:26;;;;;;;0.35;0.20;;;;;;;-142.37;100.00;59669.53;5013286;28;20061;-61
2021/07/12 06:55:52;;;;;;;0.25;0.20;;;;;;;-142.37;100.00;59669.53;4994074;28;20073;-61
2021/07/12 06:58:17;;;;;;;1.13;0.22;;;;;;;-142.37;100.00;59669.53;5006408;28;20760;-61
2021/07/12 07:00:42;;;;;;;1.15;0.30;;;;;;;-142.37;100.00;59669.53;5012461;28;20033;-61
2021/07/12 07:03:09;;;;;;;0.88;0.30;;;;;;;-142.37;100.00;59669.53;5012812;28;20032;-62
2021/07/12 07:05:35;;;;;;;1.48;0.30;;;;;;;-142.37;100.00;59669.53;5013314;28;20069;-61
2021/07/12 07:08:00;;;;;;;1.17;0.40;;;;;;;-142.37;100.00;59669.53;5013347;28;20025;-61
2021/07/12 07:10:26;;;;;;;0.35;0.10;;;;;;;-142.37;100.00;59669.53;5012869;28;20103;-61
2021/07/12 07:12:52;;;;;;;0.50;0.20;;;;;;;-142.37;100.00;59669.53;5012314;28;20061;-61
2021/07/12 07:15:17;;;;;;;0.65;0.30;;;;;;;-142.37;100.00;59669.53;5012190;28;20022;-61
2021/07/12 07:17:43;;;;;;;0.85;0.30;;;;;;;-142.37;100.00;59669.53;5005086;28;20038;-62
2021/07/12 07:20:09;;;;;;;2.47;0.45;;;;;;;-142.37;100.00;59669.53;4996125;28;20457;-62
2021/07/12 07:22:34;;;;;;;1.20;0.35;;;;;;;-142.37;100.00;59669.53;4997670;28;20033;-62
2021/07/12 07:24:59;;;;;;;0.82;0.25;;;;;;;-142.37;100.00;59669.53;4997445;28;20026;-62
2021/07/12 07:27:25;;;;;;;1.88;0.30;;;;;;;-142.37;100.00;59669.53;4997626;28;20030;-61
2021/07/12 07:29:50;;;;;;;0.90;0.50;;;;;;;-142.37;100.00;59669.53;4997358;28;20393;-62
2021/07/12 07:32:16;;;;;;;0.95;0.30;;;;;;;-142.37;100.00;59669.53;4997529;28;20061;-61
2021/07/12 07:34:44;;;;;;;0.47;0.15;;;;;;;-142.37;100.00;59669.53;4997452;28;20045;-61
2021/07/12 07:37:10;;;;;;;0.15;0.15;;;;;;;-142.37;100.00;59669.53;4997364;28;20050;-61
2021/07/12 07:39:37;;;;;;;1.10;0.30;;;;;;;-142.37;100.00;59669.53;5002663;28;20060;-61
2021/07/12 07:42:03;;;;;;;0.52;0.10;;;;;;;-142.37;100.00;59669.53;5016382;28;20041;-62
2021/07/12 07:44:28;;;;;;;1.75;0.20;;;;;;;-142.37;100.00;59669.53;5010775;28;20022;-61
2021/07/12 07:46:53;;;;;;;1.33;0.17;;;;;;;-142.37;100.00;59669.53;4997209;28;20027;-61
2021/07/12 07:49:19;;;;;;;0.93;0.20;;;;;;;-142.37;100.00;59669.53;5008743;28;20026;-61
2021/07/12 07:51:44;;;;;;;1.08;0.20;;;;;;;-142.37;100.00;59669.53;5016670;28;20057;-61
2021/07/12 07:54:11;;;;;;;1.63;0.20;;;;;;;-142.37;100.00;59669.53;5017028;28;20072;-62
2021/07/12 07:56:38;;;;;;;1.10;0.30;;;;;;;-142.37;100.00;59669.53;5016797;28;20032;-62
2021/07/12 07:59:04;;;;;;;0.82;0.30;;;;;;;-142.37;100.00;59669.53;5016505;28;20042;-63
2021/07/12 08:01:30;;;;;;;1.95;0.30;;;;;;;-142.37;100.00;59669.53;5016019;28;20033;-60
2021/07/12 08:03:55;;;;;;;1.48;0.17;;;;;;;-142.37;100.00;59669.53;5016585;28;20033;-60
2021/07/12 08:06:21;;;;;;;0.68;0.20;;;;;;;-142.37;100.00;59669.53;5016596;28;20018;-60
2021/07/12 08:08:46;;;;;;;1.35;0.30;;;;;;;-142.37;100.00;59669.53;5016455;28;20030;-60
2021/07/12 08:11:12;;;;;;;0.70;0.20;;;;;;;-142.37;100.00;59669.53;5015243;28;20040;-60
2021/07/12 08:13:37;;;;;;;0.95;0.22;;;;;;;-142.37;100.00;59669.53;5014172;28;20116;-60
2021/07/12 08:16:03;;;;;;;0.55;0.15;;;;;;;-142.37;100.00;59669.53;5002862;28;20473;-60
2021/07/12 08:18:29;;;;;;;0.88;0.20;;;;;;;-142.37;100.00;59669.53;5010048;28;20488;-60
2021/07/12 08:20:55;;;;;;;1.10;0.55;;;;;;;-142.37;100.00;59669.53;5014707;28;20093;-60
2021/07/12 08:23:20;;;;;;;1.45;0.30;;;;;;;-142.37;100.00;59669.53;4999427;28;20076;-60
2021/07/12 08:25:46;;;;;;;0.60;0.20;;;;;;;-142.37;100.00;59669.53;5002451;28;20365;-60
2021/07/12 08:28:12;;;;;;;1.05;0.32;;;;;;;-142.37;100.00;59669.53;5014425;28;20030;-60
2021/07/12 08:30:37;;;;;;;1.40;0.20;;;;;;;-142.37;100.00;59669.53;4995517;28;20022;-60
2021/07/12 08:33:03;;;;;;;1.10;0.20;;;;;;;-142.37;100.00;59669.53;5004426;28;20030;-60
2021/07/12 08:35:29;;;;;;;0.45;0.17;;;;;;;-142.37;100.00;59669.53;5012773;28;20029;-60
2021/07/12 08:37:54;;;;;;;0.50;0.20;;;;;;;-142.37;100.00;59669.53;5009891;28;20109;-60
2021/07/12 08:40:23;;;;;;;0.30;0.10;;;;;;;-142.37;100.00;59669.53;4996352;28;20030;-60
2021/07/12 08:42:50;;;;;;;0.60;0.20;;;;;;;-142.37;100.00;59669.53;4996096;28;20492;-60
2021/07/12 08:45:16;;;;;;;0.45;0.28;;;;;;;-142.37;100.00;59669.53;4996054;28;20026;-60
2021/07/12 08:47:41;;;;;;;1.08;0.30;;;;;;;-142.37;100.00;59669.53;4996296;28;20362;-60
2021/07/12 08:50:07;;;;;;;1.27;0.10;;;;;;;-142.37;100.00;59669.53;5001863;28;20110;-60
2021/07/12 08:52:32;;;;;;;0.95;0.30;;;;;;;-142.37;100.00;59669.53;5012027;28;20625;-59
2021/07/12 08:54:58;;;;;;;1.05;0.30;;;;;;;-142.37;100.00;59669.53;4995935;28;20068;-60
2021/07/12 08:57:23;;;;;;;1.70;0.20;;;;;;;-142.37;100.00;59669.53;5012756;28;20366;-60
2021/07/12 08:59:49;;;;;;;1.33;0.30;;;;;;;-142.37;100.00;59669.53;5053729;22;20048;-60
2021/07/12 09:02:16;;;;;;;0.50;0.10;;;;;;;-142.37;100.00;59669.53;5053386;28;20471;-60
2021/07/12 09:04:50;;;;;;;0.30;0.10;;;;;;;-142.37;100.00;59669.53;5053857;28;20131;-60
2021/07/12 09:07:22;;;;;;;0.63;0.10;;;;;;;-142.37;100.00;59669.53;5044509;28;20025;-60
2021/07/12 09:10:13;;;;;;;0.57;0.20;;;;;;;-142.37;100.00;59669.53;5054709;28;20479;-60
2021/07/12 09:12:48;;;;;;;0.77;0.35;;;;;;;-142.37;100.00;59669.53;5035760;28;20057;-60
2021/07/12 09:15:16;;;;;;;0.80;0.35;;;;;;;-142.37;100.00;59669.53;5052203;28;20032;-61
2021/07/12 09:17:47;;;;;;;0.30;0.13;;;;;;;-142.37;100.00;59669.53;5043375;28;20048;-60
2021/07/12 09:20:24;;;;;;;0.90;0.10;;;;;;;-142.37;100.00;59669.53;5044220;28;20420;-60
2021/07/12 09:22:49;;;;;;;1.30;0.20;;;;;;;-142.37;100.00;59669.53;5054116;28;20100;-60
2021/07/12 09:25:15;;;;;;;2.63;0.25;;;;;;;-142.37;100.00;59669.53;5054400;28;20716;-59
2021/07/12 09:27:42;;;;;;;1.25;0.28;;;;;;;-142.37;100.00;59669.53;5050244;28;20128;-60
2021/07/12 09:30:13;;;;;;;0.50;0.20;;;;;;;-142.37;100.00;59669.53;5036732;28;20028;-60
2021/07/12 09:32:40;;;;;;;1.15;0.20;;;;;;;-142.37;100.00;59669.53;5034776;28;20029;-60
2021/07/12 09:35:11;;;;;;;0.68;0.38;;;;;;;-142.37;100.00;59669.53;5034378;28;20342;-60
2021/07/12 09:37:39;;;;;;;0.35;0.17;;;;;;;-142.37;100.00;59669.53;5041284;28;20067;-61
2021/07/12 09:40:16;;;;;;;0.20;0.10;;;;;;;-142.37;100.00;59669.53;5041960;28;20016;-60
2021/07/12 09:42:47;;;;;;;0.65;0.30;;;;;;;-142.37;100.00;59669.53;5040000;28;20026;-60
2021/07/12 09:45:14;;;;;;;1.38;0.35;;;;;;;-142.37;100.00;59669.53;5047295;28;20036;-60
2021/07/12 09:47:44;;;;;;;0.35;0.10;;;;;;;-142.37;100.00;59669.53;5054099;28;20472;-60
2021/07/12 09:50:12;;;;;;;1.20;0.22;;;;;;;-142.37;100.00;59669.53;5033535;28;20029;-60
2021/07/12 09:52:39;;;;;;;1.35;0.15;;;;;;;-142.37;100.00;59669.53;5033685;28;20025;-60
2021/07/12 09:55:06;;;;;;;0.60;0.20;;;;;;;-142.37;100.00;59669.53;5033230;28;20026;-60
2021/07/12 09:57:33;;;;;;;1.77;0.20;;;;;;;-142.37;100.00;59669.53;5034111;28;20029;-60
2021/07/12 10:00:00;;;;;;;0.93;0.20;;;;;;;-142.37;100.00;59669.53;5033923;28;20073;-60
2021/07/12 10:02:29;;;;;;;1.65;0.45;;;;;;;-142.37;100.00;59669.53;5013834;28;20494;-60
2021/07/12 10:04:57;;;;;;;1.25;0.20;;;;;;;-142.37;100.00;59669.53;5014209;28;20026;-60
2021/07/12 10:07:23;;;;;;;1.35;0.20;;;;;;;-142.37;100.00;59669.53;5014312;28;20034;-60
2021/07/12 10:09:49;;;;;;;0.88;0.25;;;;;;;-142.37;100.00;59669.53;5013790;28;20468;-60
2021/07/12 10:12:15;;;;;;;1.75;0.20;;;;;;;-142.37;100.00;59669.53;5014164;28;20036;-60
2021/07/12 10:14:41;;;;;;;2.75;0.30;;;;;;;-142.37;100.00;59669.53;5012520;28;20385;-60
2021/07/12 10:17:09;;;;;;;0.52;0.30;;;;;;;-142.37;100.00;59669.53;5013605;28;20034;-60
2021/07/12 10:19:35;;;;;;;0.65;0.30;;;;;;;-142.37;100.00;59669.53;5013758;28;20480;-60
2021/07/12 10:22:00;;;;;;;1.05;0.20;;;;;;;-142.37;100.00;59669.53;5012977;28;20037;-60
2021/07/12 10:24:27;;;;;;;0.52;0.38;;;;;;;-142.37;100.00;59669.53;5013151;28;20033;-60
2021/07/12 10:26:58;;;;;;;0.95;0.20;;;;;;;-142.37;100.00;59669.53;5016191;28;20041;-60
2021/07/12 10:29:36;;;;;;;1.45;0.30;;;;;;;-142.37;100.00;59669.53;5013061;28;20033;-60
2021/07/12 10:32:04;;;;;;;1.65;0.30;;;;;;;-142.37;100.00;59669.53;5026154;28;20021;-60
2021/07/12 10:34:35;;;;;;;0.40;0.20;;;;;;;-142.37;100.00;59669.53;5021379;28;20033;-60
2021/07/12 10:37:16;;;;;;;1.85;0.10;;;;;;;-142.37;100.00;59669.53;5013558;28;20018;-60
2021/07/12 10:39:57;;;;;;;0.38;0.10;;;;;;;-142.37;100.00;59669.53;5026271;28;20017;-60
2021/07/12 10:42:41;;;;;;;1.35;0.52;;;;;;;-142.37;100.00;59669.53;5033480;28;20029;-60
2021/07/12 10:45:33;;;;;;;0.10;0.10;;;;;;;-142.37;100.00;59669.53;5023346;28;20028;-60
2021/07/12 10:47:58;;;;;;;0.50;0.20;;;;;;;-142.37;100.00;59669.53;5027465;28;20027;-60
2021/07/12 10:50:40;;;;;;;0.40;0.20;;;;;;;-142.37;100.00;59669.53;5033284;28;20108;-60
2021/07/12 10:53:14;;;;;;;0.70;0.20;;;;;;;-142.37;100.00;59669.53;5032776;28;20104;-60
2021/07/12 10:56:03;;;;;;;1.98;0.30;;;;;;;-142.37;100.00;59669.53;5018392;28;20068;-60
2021/07/12 10:58:31;;;;;;;0.77;0.20;;;;;;;-142.37;100.00;59669.53;5011244;28;20125;-60
2021/07/12 11:01:00;;;;;;;0.68;0.20;;;;;;;-142.37;100.00;59669.53;5012478;28;20022;-60
2021/07/12 11:03:34;;;;;;;0.20;0.10;;;;;;;-142.37;100.00;59669.53;5015757;28;20030;-60
2021/07/12 11:06:02;;;;;;;0.45;0.20;;;;;;;-142.37;100.00;59669.53;5012728;28;20030;-60
2021/07/12 11:08:47;;;;;;;2.17;0.43;;;;;;;-142.37;100.00;59669.53;5013291;28;20069;-60
2021/07/12 11:11:38;;;;;;;0.50;0.15;;;;;;;-142.37;100.00;59669.53;5013178;28;20165;-60
2021/07/12 11:14:18;;;;;;;0.85;0.20;;;;;;;-142.37;100.00;59669.53;5024846;28;20033;-60